createdAt,value
2022-08-22T00:02:04.383Z,16.88
2022-08-22T00:07:12.219Z,16.83
2022-08-22T00:12:20.087Z,16.82
2022-08-22T00:17:26.626Z,16.78
2022-08-22T00:22:34.570Z,16.73
2022-08-22T00:27:42.622Z,16.68
2022-08-22T00:32:50.314Z,16.65
2022-08-22T00:37:57.979Z,16.7
2022-08-22T00:44:36.701Z,16.62
2022-08-22T00:49:43.374Z,16.57
2022-08-22T00:54:51.102Z,16.48
2022-08-22T00:59:58.785Z,16.43
2022-08-22T01:05:06.842Z,16.39
2022-08-22T01:10:15.261Z,16.35
2022-08-22T01:15:23.177Z,16.3
2022-08-22T01:20:31.283Z,16.26
2022-08-22T01:25:37.845Z,16.25
2022-08-22T01:30:44.849Z,16.2
2022-08-22T01:35:53.044Z,16.15
2022-08-22T01:41:01.822Z,16.14
2022-08-22T01:46:10.856Z,16.11
2022-08-22T01:51:19.128Z,16.06
2022-08-22T01:56:27.165Z,15.99
2022-08-22T02:01:34.462Z,15.96
2022-08-22T02:06:42.363Z,15.94
2022-08-22T02:11:49.989Z,15.9
2022-08-22T02:16:58.328Z,15.9
2022-08-22T02:22:05.679Z,15.86
2022-08-22T02:27:13.523Z,15.88
2022-08-22T02:32:20.695Z,15.94
2022-08-22T02:37:29.046Z,15.92
2022-08-22T02:42:37.525Z,15.98
2022-08-22T02:47:45.302Z,15.96
2022-08-22T02:52:53.523Z,15.97
2022-08-22T02:58:01.774Z,15.97
2022-08-22T03:03:09.590Z,15.97
2022-08-22T03:08:17.522Z,15.98
2022-08-22T03:13:33.578Z,15.97
2022-08-22T03:18:42.004Z,15.94
2022-08-22T03:23:48.697Z,16.08
2022-08-22T03:30:28.077Z,16.03
2022-08-22T03:35:34.006Z,15.98
2022-08-22T03:40:41.635Z,15.94
2022-08-22T03:45:49.509Z,15.9
2022-08-22T03:50:57.533Z,15.92
2022-08-22T03:56:12.397Z,15.9
2022-08-22T04:01:19.831Z,15.86
2022-08-22T04:06:26.946Z,15.8
2022-08-22T04:11:34.618Z,15.72
2022-08-22T04:16:42.520Z,15.64
2022-08-22T04:21:49.659Z,15.61
2022-08-22T04:26:57.651Z,15.55
2022-08-22T04:32:06.123Z,15.54
2022-08-22T04:37:13.216Z,15.49
2022-08-22T04:42:20.724Z,15.48
2022-08-22T04:47:28.218Z,15.46
2022-08-22T04:52:35.994Z,15.44
2022-08-22T04:57:43.990Z,15.4
2022-08-22T05:02:52.317Z,15.38
2022-08-22T05:08:00.394Z,15.4
2022-08-22T05:13:08.886Z,15.44
2022-08-22T05:18:17.140Z,15.44
2022-08-22T05:23:24.423Z,15.43
2022-08-22T05:28:32.622Z,15.43
2022-08-22T05:33:41.211Z,15.42
2022-08-22T05:38:49.402Z,15.46
2022-08-22T05:43:57.526Z,15.48
2022-08-22T05:49:06.002Z,15.49
2022-08-22T05:54:13.340Z,15.47
2022-08-22T05:59:21.177Z,15.46
2022-08-22T06:04:29.599Z,15.48
2022-08-22T06:09:37.693Z,15.48
2022-08-22T06:14:45.413Z,15.54
2022-08-22T06:19:53.810Z,15.58
2022-08-22T06:25:03.780Z,15.58
2022-08-22T06:30:10.926Z,15.65
2022-08-22T06:35:18.486Z,15.66
2022-08-22T06:40:26.406Z,15.72
2022-08-22T06:45:34.426Z,15.84
2022-08-22T06:50:43.381Z,15.92
2022-08-22T06:55:52.497Z,16.04
2022-08-22T07:01:00.088Z,16.15
2022-08-22T07:06:08.726Z,16.21
2022-08-22T07:11:15.432Z,16.28
2022-08-22T07:16:23.445Z,16.34
2022-08-22T07:21:32.605Z,16.29
2022-08-22T07:26:39.662Z,16.28
2022-08-22T07:31:47.420Z,16.3
2022-08-22T07:36:55.768Z,16.33
2022-08-22T07:42:03.511Z,16.39
2022-08-22T07:47:11.616Z,16.44
2022-08-22T07:52:18.785Z,16.44
2022-08-22T07:57:28.346Z,16.42
2022-08-22T08:02:35.741Z,16.47
2022-08-22T08:07:43.965Z,16.47
2022-08-22T08:12:51.491Z,16.42
2022-08-22T08:17:57.317Z,16.4
2022-08-22T08:23:05.652Z,16.47
2022-08-22T08:28:14.169Z,16.54
2022-08-22T08:33:21.759Z,16.6
2022-08-22T08:38:28.943Z,16.51
2022-08-22T08:43:36.408Z,16.48
2022-08-22T08:48:44.340Z,16.52
2022-08-22T08:53:52.626Z,16.72
2022-08-22T08:59:00.054Z,16.99
2022-08-22T09:04:08.409Z,17.04
2022-08-22T09:09:16.376Z,17.15
2022-08-22T09:14:23.906Z,17.35
2022-08-22T09:19:32.086Z,17.43
2022-08-22T09:24:39.920Z,17.47
2022-08-22T09:29:47.670Z,17.43
2022-08-22T09:34:54.293Z,17.46
2022-08-22T09:40:02.070Z,17.7
2022-08-22T09:45:10.486Z,17.9
2022-08-22T09:50:18.010Z,17.94
2022-08-22T09:55:25.685Z,18.26
2022-08-22T10:00:34.136Z,18.61
2022-08-22T10:05:41.489Z,18.68
2022-08-22T10:10:49.178Z,18.52
2022-08-22T10:15:56.629Z,18.67
2022-08-22T10:21:04.537Z,18.7
2022-08-22T10:26:52.426Z,18.9
2022-08-22T10:32:00.214Z,18.59
2022-08-22T10:37:06.786Z,18.33
2022-08-22T10:42:14.622Z,17.85
2022-08-22T10:47:21.828Z,17.62
2022-08-22T10:52:29.863Z,17.48
2022-08-22T10:57:36.871Z,17.44
2022-08-22T11:02:44.084Z,17.43
2022-08-22T11:07:51.713Z,17.36
2022-08-22T11:12:58.965Z,17.44
2022-08-22T11:18:15.516Z,17.52
2022-08-22T11:23:23.098Z,17.59
2022-08-22T11:28:30.651Z,17.78
2022-08-22T11:33:39.116Z,17.98
2022-08-22T11:38:47.760Z,17.98
2022-08-22T11:43:56.778Z,18.03
2022-08-22T11:49:04.573Z,17.94
2022-08-22T11:54:12.485Z,17.91
2022-08-22T11:59:20.395Z,17.94
2022-08-22T12:04:28.247Z,17.9
2022-08-22T12:09:34.953Z,17.96
2022-08-22T12:14:43.189Z,18.02
2022-08-22T12:19:51.474Z,18.12
2022-08-22T12:25:00.076Z,18.2
2022-08-22T12:30:08.730Z,18.33
2022-08-22T12:35:15.450Z,18.34
2022-08-22T12:40:23.944Z,18.36
2022-08-22T12:45:31.033Z,18.2
2022-08-22T12:50:39.140Z,18.1
2022-08-22T12:55:46.148Z,18.01
2022-08-22T13:00:54.622Z,17.86
2022-08-22T13:06:03.614Z,17.92
2022-08-22T13:11:11.753Z,17.8
2022-08-22T13:16:19.835Z,17.82
2022-08-22T13:21:28.403Z,17.83
2022-08-22T13:26:37.548Z,17.9
2022-08-22T13:31:44.572Z,17.94
2022-08-22T13:36:52.720Z,17.84
2022-08-22T13:42:00.527Z,17.75
2022-08-22T13:47:08.172Z,17.82
2022-08-22T13:52:14.957Z,17.98
2022-08-22T13:57:23.290Z,17.99
2022-08-22T14:02:30.626Z,17.96
2022-08-22T14:07:37.800Z,17.94
2022-08-22T14:12:45.667Z,17.92
2022-08-22T14:17:54.085Z,17.9
2022-08-22T14:23:00.511Z,17.84
2022-08-22T14:28:09.678Z,17.82
2022-08-22T14:33:17.529Z,17.79
2022-08-22T14:38:24.980Z,17.69
2022-08-22T14:43:33.206Z,17.7
2022-08-22T14:48:41.002Z,17.62
2022-08-22T14:53:47.676Z,17.53
2022-08-22T14:58:54.941Z,17.5
2022-08-22T15:04:03.668Z,17.47
2022-08-22T15:09:10.089Z,17.49
2022-08-22T15:14:18.968Z,17.49
2022-08-22T15:19:26.669Z,17.48
2022-08-22T15:24:34.258Z,17.51
2022-08-22T15:29:42.488Z,17.6
2022-08-22T15:34:50.238Z,17.6
2022-08-22T15:39:57.681Z,17.62
2022-08-22T15:45:04.298Z,17.5
2022-08-22T15:50:11.420Z,17.47
2022-08-22T15:55:19.071Z,17.4
2022-08-22T16:00:27.595Z,17.26
2022-08-22T16:05:34.305Z,17.14
2022-08-22T16:10:41.496Z,17.06
2022-08-22T16:15:48.098Z,16.93
2022-08-22T16:20:56.705Z,16.86
2022-08-22T16:26:05.532Z,16.82
2022-08-22T16:31:19.440Z,16.76
2022-08-22T16:36:27.070Z,16.73
2022-08-22T16:41:33.853Z,16.64
2022-08-22T16:46:43.107Z,16.56
2022-08-22T16:51:49.922Z,16.46
2022-08-22T16:56:57.185Z,16.43
2022-08-22T17:02:04.475Z,16.36
2022-08-22T17:07:13.374Z,16.26
2022-08-22T17:12:20.738Z,16.17
2022-08-22T17:17:27.289Z,16.11
2022-08-22T17:22:35.350Z,16.02
2022-08-22T17:27:43.025Z,15.97
2022-08-22T17:32:50.142Z,15.93
2022-08-22T17:37:57.784Z,15.9
2022-08-22T17:43:06.330Z,15.89
2022-08-22T17:48:13.831Z,15.85
2022-08-22T17:53:21.326Z,15.83
2022-08-22T17:58:29.454Z,15.8
2022-08-22T18:03:37.291Z,15.84
2022-08-22T18:08:50.162Z,15.84
2022-08-22T18:13:56.894Z,15.78
2022-08-22T18:19:03.864Z,15.8
2022-08-22T18:24:11.129Z,15.82
2022-08-22T18:29:18.330Z,15.86
2022-08-22T18:34:25.524Z,15.92
2022-08-22T18:39:32.765Z,15.92
2022-08-22T18:44:41.044Z,15.9
2022-08-22T18:49:48.753Z,16.0
2022-08-22T18:54:56.881Z,15.98
2022-08-22T19:00:03.420Z,15.96
2022-08-22T19:05:12.060Z,15.94
2022-08-22T19:10:20.439Z,15.99
2022-08-22T19:15:26.971Z,15.98
2022-08-22T19:20:35.569Z,15.98
2022-08-22T19:25:43.265Z,15.94
2022-08-22T19:30:51.111Z,15.92
2022-08-22T19:35:58.335Z,15.9
2022-08-22T19:41:05.677Z,15.92
2022-08-22T19:46:13.568Z,15.88
2022-08-22T19:51:21.750Z,15.86
2022-08-22T19:56:29.235Z,15.84
2022-08-22T20:01:37.323Z,15.88
2022-08-22T20:06:45.509Z,15.88
2022-08-22T20:11:52.757Z,15.88
2022-08-22T20:17:01.176Z,15.86
2022-08-22T20:22:09.163Z,15.92
2022-08-22T20:27:17.184Z,15.94
2022-08-22T20:32:24.960Z,15.94
2022-08-22T20:37:32.888Z,15.94
2022-08-22T20:42:40.412Z,15.98
2022-08-22T20:47:48.866Z,16.02
2022-08-22T20:52:56.535Z,16.04
2022-08-22T20:58:03.783Z,15.94
2022-08-22T21:03:11.432Z,15.71
2022-08-22T21:08:19.146Z,15.56
2022-08-22T21:13:27.423Z,15.48
2022-08-22T21:18:36.085Z,15.42
2022-08-22T21:23:43.648Z,15.38
2022-08-22T21:28:51.418Z,15.35
2022-08-22T21:33:58.886Z,15.34
2022-08-22T21:39:07.260Z,15.32
2022-08-22T21:44:15.451Z,15.32
2022-08-22T21:49:22.120Z,15.33
2022-08-22T21:54:30.015Z,15.36
2022-08-22T21:59:38.295Z,15.4
2022-08-22T22:04:46.804Z,15.4
2022-08-22T22:09:54.774Z,15.36
2022-08-22T22:15:02.789Z,15.4
2022-08-22T22:20:09.812Z,15.42
2022-08-22T22:25:18.055Z,15.44
2022-08-22T22:30:26.333Z,15.46
2022-08-22T22:35:34.614Z,15.47
2022-08-22T22:40:43.865Z,15.46
2022-08-22T22:45:51.575Z,15.46
2022-08-22T22:50:58.806Z,15.48
2022-08-22T22:56:06.247Z,15.48
2022-08-22T23:01:14.066Z,15.51
2022-08-22T23:06:30.283Z,15.52
2022-08-22T23:11:37.629Z,15.52
2022-08-22T23:16:45.714Z,15.52
2022-08-22T23:21:53.542Z,15.55
2022-08-22T23:27:01.485Z,15.56
2022-08-22T23:32:08.597Z,15.56
2022-08-22T23:37:15.102Z,15.58
2022-08-22T23:42:23.025Z,15.55
2022-08-22T23:47:30.862Z,15.56
2022-08-22T23:52:38.011Z,15.54
2022-08-22T23:57:45.872Z,15.48
